createdAt,value
2023-01-28T00:01:18.392Z,1.40
2023-01-28T00:03:46.640Z,1.40
2023-01-28T00:06:16.351Z,1.40
2023-01-28T00:08:44.343Z,1.40
2023-01-28T00:11:14.190Z,1.40
2023-01-28T00:13:42.826Z,1.40
2023-01-28T00:16:11.510Z,1.40
2023-01-28T00:18:39.754Z,1.40
2023-01-28T00:21:15.813Z,1.40
2023-01-28T00:23:48.336Z,1.40
2023-01-28T00:26:17.153Z,1.40
2023-01-28T00:28:46.687Z,1.40
2023-01-28T00:31:19.869Z,1.40
2023-01-28T00:33:52.680Z,1.40
2023-01-28T00:36:22.132Z,1.40
2023-01-28T00:38:55.343Z,1.40
2023-01-28T00:41:26.143Z,1.40
2023-01-28T00:43:54.705Z,1.40
2023-01-28T00:46:24.192Z,1.40
2023-01-28T00:48:52.145Z,1.40
2023-01-28T00:51:21.758Z,1.50
2023-01-28T00:53:50.901Z,1.50
2023-01-28T00:56:20.741Z,1.50
2023-01-28T00:58:48.843Z,1.50
2023-01-28T01:01:20.793Z,1.50
2023-01-28T01:03:49.643Z,1.50
2023-01-28T01:06:17.570Z,1.50
2023-01-28T01:08:51.504Z,1.40
2023-01-28T01:11:20.268Z,1.40
2023-01-28T01:13:53.562Z,1.40
2023-01-28T01:16:22.085Z,1.40
2023-01-28T01:18:51.533Z,1.40
2023-01-28T01:21:22.323Z,1.40
2023-01-28T01:23:50.742Z,1.40
2023-01-28T01:26:18.900Z,1.40
2023-01-28T01:28:47.209Z,1.40
2023-01-28T01:31:18.659Z,1.40
2023-01-28T01:33:51.938Z,1.40
2023-01-28T01:36:23.045Z,1.40
2023-01-28T01:38:56.056Z,1.40
2023-01-28T01:41:32.808Z,1.40
2023-01-28T01:44:05.996Z,1.40
2023-01-28T01:46:48.550Z,1.40
2023-01-28T01:49:23.178Z,1.40
2023-01-28T01:51:58.503Z,1.40
2023-01-28T01:54:29.600Z,1.40
2023-01-28T01:57:00.018Z,1.40
2023-01-28T01:59:34.420Z,1.40
2023-01-28T02:02:08.624Z,1.50
2023-01-28T02:04:41.631Z,1.50
2023-01-28T02:07:12.247Z,1.50
2023-01-28T02:09:42.675Z,1.50
2023-01-28T02:12:17.800Z,1.50
2023-01-28T02:14:55.503Z,1.50
2023-01-28T02:17:23.762Z,1.60
2023-01-28T02:20:04.562Z,1.50
2023-01-28T02:22:44.742Z,1.50
2023-01-28T02:25:52.465Z,1.60
2023-01-28T02:28:35.247Z,1.50
2023-01-28T02:31:22.302Z,1.50
2023-01-28T02:34:09.764Z,1.50
2023-01-28T02:36:54.741Z,1.50
2023-01-28T02:39:35.863Z,1.50
2023-01-28T02:42:11.864Z,1.50
2023-01-28T02:44:40.130Z,1.50
2023-01-28T02:47:34.127Z,1.50
2023-01-28T02:50:08.682Z,1.50
2023-01-28T02:53:05.855Z,1.50
2023-01-28T02:55:49.591Z,1.50
2023-01-28T02:58:30.455Z,1.50
2023-01-28T03:00:58.414Z,1.50
2023-01-28T03:03:39.188Z,1.60
2023-01-28T03:06:15.577Z,1.60
2023-01-28T03:09:06.070Z,1.60
2023-01-28T03:11:58.482Z,1.60
2023-01-28T03:14:46.547Z,1.60
2023-01-28T03:17:39.249Z,1.60
2023-01-28T03:20:29.031Z,1.60
2023-01-28T03:23:20.719Z,1.60
2023-01-28T03:26:13.399Z,1.60
2023-01-28T03:29:01.646Z,1.60
2023-01-28T03:31:51.124Z,1.60
2023-01-28T03:34:40.798Z,1.60
2023-01-28T03:37:10.830Z,1.60
2023-01-28T03:39:44.822Z,1.60
2023-01-28T04:58:34.206Z,1.50
2023-01-28T05:01:09.593Z,1.50
2023-01-28T05:03:38.309Z,1.50
2023-01-28T05:06:10.262Z,1.50
2023-01-28T05:08:49.634Z,1.50
2023-01-28T05:11:17.773Z,1.50
2023-01-28T05:13:49.541Z,1.50
2023-01-28T05:16:19.342Z,1.50
2023-01-28T05:18:49.151Z,1.50
2023-01-28T05:21:19.479Z,1.50
2023-01-28T05:23:56.789Z,1.50
2023-01-28T05:26:24.975Z,1.50
2023-01-28T05:28:52.885Z,1.50
2023-01-28T05:31:20.816Z,1.50
2023-01-28T05:33:48.812Z,1.50
2023-01-28T05:36:17.698Z,1.50
2023-01-28T05:38:45.637Z,1.50
2023-01-28T05:41:13.917Z,1.50
2023-01-28T05:43:43.690Z,1.50
2023-01-28T05:46:18.223Z,1.50
2023-01-28T05:49:04.773Z,1.40
2023-01-28T05:51:50.890Z,1.40
2023-01-28T05:54:21.656Z,1.40
2023-01-28T05:56:49.886Z,1.40
2023-01-28T05:59:18.705Z,1.40
2023-01-28T06:01:49.344Z,1.40
2023-01-28T06:04:19.978Z,1.50
2023-01-28T06:06:48.081Z,1.50
2023-01-28T06:09:16.599Z,1.50
2023-01-28T06:11:45.469Z,1.40
2023-01-28T06:14:15.039Z,1.40
2023-01-28T06:17:05.231Z,1.40
2023-01-28T06:19:56.095Z,1.40
2023-01-28T06:22:24.080Z,1.40
2023-01-28T06:24:52.022Z,1.40
2023-01-28T06:27:19.991Z,1.40
2023-01-28T06:29:47.930Z,1.40
2023-01-28T06:32:16.061Z,1.40
2023-01-28T06:34:44.081Z,1.40
2023-01-28T06:37:14.873Z,1.40
2023-01-28T06:39:42.864Z,1.40
2023-01-28T06:42:10.912Z,1.40
2023-01-28T06:44:38.855Z,1.40
2023-01-28T06:47:06.970Z,1.40
2023-01-28T06:49:34.990Z,1.40
2023-01-28T06:52:02.946Z,1.40
2023-01-28T06:54:30.891Z,1.40
2023-01-28T06:57:00.407Z,1.40
2023-01-28T06:59:28.302Z,1.40
2023-01-28T07:01:56.264Z,1.30
2023-01-28T07:04:24.287Z,1.30
2023-01-28T07:06:52.203Z,1.30
2023-01-28T07:09:20.151Z,1.30
2023-01-28T07:11:48.206Z,1.30
2023-01-28T07:14:16.173Z,1.30
2023-01-28T07:16:44.063Z,1.30
2023-01-28T07:19:12.028Z,1.30
2023-01-28T07:21:39.916Z,1.40
2023-01-28T07:24:08.151Z,1.30
2023-01-28T07:26:36.191Z,1.40
2023-01-28T07:29:04.127Z,1.40
2023-01-28T07:31:32.253Z,1.40
2023-01-28T07:34:00.265Z,1.40
2023-01-28T07:36:28.174Z,1.40
2023-01-28T07:38:56.057Z,1.40
2023-01-28T07:41:24.013Z,1.50
2023-01-28T07:43:51.871Z,1.50
2023-01-28T07:46:19.943Z,1.50
2023-01-28T07:48:52.456Z,1.50
2023-01-28T07:51:21.017Z,1.50
2023-01-28T07:53:49.642Z,1.50
2023-01-28T07:56:17.660Z,1.60
2023-01-28T07:58:45.605Z,1.60
2023-01-28T08:01:13.888Z,1.60
2023-01-28T08:03:50.279Z,1.60
2023-01-28T08:06:19.711Z,1.60
2023-01-28T08:08:49.448Z,1.60
2023-01-28T08:11:20.683Z,1.60
2023-01-28T08:13:50.241Z,1.60
2023-01-28T08:16:18.235Z,1.60
2023-01-28T08:18:46.176Z,1.70
2023-01-28T08:21:14.526Z,1.70
2023-01-28T08:23:42.418Z,1.70
2023-01-28T08:26:10.747Z,1.70
2023-01-28T08:28:38.658Z,1.70
2023-01-28T08:31:06.971Z,1.70
2023-01-28T08:33:34.923Z,1.70
2023-01-28T08:36:06.375Z,1.80
2023-01-28T08:38:34.373Z,1.80
2023-01-28T08:41:02.350Z,1.90
2023-01-28T08:43:30.313Z,1.90
2023-01-28T08:45:58.614Z,1.90
2023-01-28T08:48:26.764Z,1.90
2023-01-28T08:50:54.668Z,1.90
2023-01-28T08:53:22.713Z,1.90
2023-01-28T08:55:50.620Z,1.90
2023-01-28T08:58:19.769Z,1.90
2023-01-28T09:00:48.243Z,1.80
2023-01-28T09:03:16.399Z,1.90
2023-01-28T09:05:44.667Z,1.90
2023-01-28T09:08:15.408Z,1.90
2023-01-28T09:10:43.694Z,2.00
2023-01-28T09:13:16.635Z,2.10
2023-01-28T09:15:44.870Z,2.10
2023-01-28T09:18:12.756Z,2.20
2023-01-28T09:20:41.125Z,2.20
2023-01-28T09:23:09.570Z,2.20
2023-01-28T09:25:37.868Z,2.20
2023-01-28T09:28:06.365Z,2.20
2023-01-28T09:30:37.796Z,2.40
2023-01-28T09:33:06.059Z,2.30
2023-01-28T09:35:42.514Z,2.20
2023-01-28T09:38:13.534Z,2.20
2023-01-28T09:40:46.021Z,2.20
2023-01-28T09:43:35.630Z,2.10
2023-01-28T09:46:10.183Z,2.10
2023-01-28T09:48:43.805Z,2.20
2023-01-28T09:51:36.882Z,2.30
2023-01-28T09:54:22.000Z,2.40
2023-01-28T09:56:55.943Z,2.40
2023-01-28T09:59:24.795Z,2.40
2023-01-28T10:01:58.003Z,2.40
2023-01-28T10:04:28.949Z,2.30
2023-01-28T10:07:02.990Z,2.30
2023-01-28T10:09:51.571Z,2.30
2023-01-28T10:12:36.074Z,2.30
2023-01-28T10:15:24.122Z,2.30
2023-01-28T10:18:10.815Z,2.40
2023-01-28T10:20:56.090Z,2.40
2023-01-28T10:23:55.430Z,2.40
2023-01-28T10:26:26.625Z,2.50
2023-01-28T10:29:08.203Z,2.50
2023-01-28T10:31:40.845Z,2.60
2023-01-28T10:34:10.487Z,2.60
2023-01-28T10:36:38.510Z,2.50
2023-01-28T10:39:08.012Z,2.50
2023-01-28T10:41:39.964Z,2.60
2023-01-28T10:44:32.986Z,2.70
2023-01-28T10:47:05.520Z,2.60
2023-01-28T10:49:42.579Z,2.70
2023-01-28T10:52:17.048Z,2.70
2023-01-28T10:54:45.263Z,2.70
2023-01-28T10:57:17.217Z,2.70
2023-01-28T10:59:45.537Z,2.80
2023-01-28T11:02:28.017Z,2.90
2023-01-28T11:05:17.508Z,2.90
2023-01-28T11:07:46.136Z,3.00
2023-01-28T11:10:28.492Z,3.10
2023-01-28T11:12:58.156Z,3.10
2023-01-28T11:15:26.398Z,3.00
2023-01-28T11:17:59.808Z,3.00
2023-01-28T11:20:30.079Z,2.90
2023-01-28T11:22:59.005Z,2.90
2023-01-28T11:25:37.090Z,3.10
2023-01-28T11:28:16.762Z,3.10
2023-01-28T11:30:47.221Z,3.10
2023-01-28T11:33:29.116Z,3.10
2023-01-28T11:35:59.788Z,3.10
2023-01-28T11:38:27.819Z,3.00
2023-01-28T11:40:57.892Z,3.10
2023-01-28T11:43:31.423Z,3.00
2023-01-28T11:46:05.480Z,3.10
2023-01-28T11:48:43.468Z,3.10
2023-01-28T11:51:49.388Z,3.20
2023-01-28T11:54:42.125Z,3.20
2023-01-28T11:57:26.951Z,3.10
2023-01-28T12:00:25.011Z,3.10
2023-01-28T12:03:41.555Z,3.10
2023-01-28T12:06:35.734Z,3.10
2023-01-28T12:09:47.891Z,3.10
2023-01-28T12:12:16.029Z,2.90
2023-01-28T12:15:31.941Z,2.70
2023-01-28T12:18:08.745Z,2.70
2023-01-28T12:21:05.462Z,2.70
2023-01-28T12:24:01.542Z,2.70
2023-01-28T12:26:51.634Z,2.80
2023-01-28T12:29:50.989Z,2.80
2023-01-28T12:32:40.300Z,2.70
2023-01-28T12:35:33.521Z,2.80
2023-01-28T12:38:16.291Z,2.70
2023-01-28T12:41:04.153Z,2.70
2023-01-28T12:43:50.311Z,2.70
2023-01-28T12:46:46.447Z,2.70
2023-01-28T12:49:37.062Z,2.70
2023-01-28T12:52:35.647Z,2.60
2023-01-28T12:55:14.529Z,2.50
2023-01-28T12:57:43.051Z,2.50
2023-01-28T13:00:26.465Z,2.50
2023-01-28T13:03:20.049Z,2.40
2023-01-28T13:06:02.912Z,2.50
2023-01-28T13:08:31.652Z,2.40
2023-01-28T13:11:02.281Z,2.40
2023-01-28T13:13:38.711Z,2.40
2023-01-28T13:16:11.367Z,2.40
2023-01-28T13:18:42.707Z,2.30
2023-01-28T13:21:18.768Z,2.30
2023-01-28T13:23:51.561Z,2.20
2023-01-28T13:26:19.406Z,2.30
2023-01-28T13:28:48.954Z,2.30
2023-01-28T13:31:23.057Z,2.40
2023-01-28T13:34:04.343Z,2.40
2023-01-28T13:36:46.792Z,2.40
2023-01-28T13:39:15.160Z,2.30
2023-01-28T13:42:03.279Z,2.20
2023-01-28T13:44:36.149Z,2.20
2023-01-28T13:47:06.760Z,2.20
2023-01-28T13:49:41.010Z,2.20
2023-01-28T13:52:16.762Z,2.20
2023-01-28T13:54:56.917Z,2.10
2023-01-28T13:57:43.792Z,2.10
2023-01-28T14:00:29.232Z,2.20
2023-01-28T14:03:36.814Z,2.10
2023-01-28T14:06:25.625Z,2.10
2023-01-28T14:09:42.667Z,2.20
2023-01-28T14:12:31.523Z,2.30
2023-01-28T14:15:21.212Z,2.20
2023-01-28T14:17:58.191Z,2.10
2023-01-28T14:20:38.791Z,2.10
2023-01-28T14:23:15.353Z,2.20
2023-01-28T14:25:49.197Z,2.20
2023-01-28T14:28:30.193Z,2.20
2023-01-28T14:31:10.294Z,2.20
2023-01-28T14:33:39.065Z,2.10
2023-01-28T14:36:07.503Z,2.10
2023-01-28T14:38:41.005Z,2.10
2023-01-28T14:41:10.338Z,2.10
2023-01-28T14:43:41.040Z,2.10
2023-01-28T14:46:21.145Z,2.00
2023-01-28T14:49:22.639Z,2.00
2023-01-28T14:52:27.326Z,2.00
2023-01-28T14:55:27.683Z,2.00
2023-01-28T14:58:00.814Z,2.00
2023-01-28T15:00:31.117Z,1.90
2023-01-28T15:02:59.143Z,1.80
2023-01-28T15:05:29.482Z,1.70
2023-01-28T15:07:57.638Z,1.70
2023-01-28T15:10:34.122Z,1.60
2023-01-28T15:13:19.616Z,1.60
2023-01-28T15:15:50.999Z,1.50
2023-01-28T15:18:27.407Z,1.50
2023-01-28T15:20:57.433Z,1.50
2023-01-28T15:23:40.263Z,1.40
2023-01-28T15:26:16.420Z,1.50
2023-01-28T15:28:46.711Z,1.50
2023-01-28T15:31:33.920Z,1.50
2023-01-28T15:34:03.075Z,1.50
2023-01-28T15:36:32.246Z,1.40
2023-01-28T15:39:00.353Z,1.40
2023-01-28T15:41:36.197Z,1.40
2023-01-28T15:44:05.052Z,1.40
2023-01-28T15:46:33.234Z,1.40
2023-01-28T15:49:04.426Z,1.40
2023-01-28T15:51:35.268Z,1.30
2023-01-28T15:54:12.089Z,1.20
2023-01-28T15:56:50.037Z,1.20
2023-01-28T15:59:30.169Z,1.20
2023-01-28T16:02:24.667Z,1.20
2023-01-28T16:05:05.227Z,1.10
2023-01-28T16:07:35.208Z,1.10
2023-01-28T16:10:04.877Z,1.10
2023-01-28T16:12:32.969Z,1.10
2023-01-28T16:15:12.364Z,1.10
2023-01-28T16:17:47.167Z,1.10
2023-01-28T16:20:28.004Z,1.20
2023-01-28T16:22:58.897Z,1.20
2023-01-28T16:25:34.249Z,1.10
2023-01-28T16:28:12.559Z,1.00
2023-01-28T16:30:40.636Z,1.00
2023-01-28T16:33:20.295Z,1.00
2023-01-28T16:36:06.562Z,0.90
2023-01-28T16:38:36.489Z,0.90
2023-01-28T16:41:04.549Z,0.80
2023-01-28T16:46:00.402Z,0.80
2023-01-28T16:48:28.287Z,0.70
2023-01-28T16:50:56.179Z,0.80
2023-01-28T16:53:34.776Z,0.70
2023-01-28T16:56:03.602Z,0.70
2023-01-28T16:58:31.792Z,0.60
2023-01-28T17:01:00.322Z,0.70
2023-01-28T17:03:28.231Z,0.80
2023-01-28T17:05:56.234Z,0.80
2023-01-28T17:08:24.144Z,0.60
2023-01-28T17:10:56.220Z,0.60
2023-01-28T17:13:24.168Z,0.50
2023-01-28T17:15:52.685Z,0.50
2023-01-28T17:18:20.742Z,0.40
2023-01-28T17:20:48.667Z,0.40
2023-01-28T17:23:17.403Z,0.40
2023-01-28T17:25:45.626Z,0.50
2023-01-28T17:28:13.631Z,0.60
2023-01-28T17:30:42.683Z,0.50
2023-01-28T17:33:10.835Z,0.60
2023-01-28T17:35:38.859Z,0.60
2023-01-28T17:38:07.120Z,0.60
2023-01-28T17:40:35.144Z,0.60
2023-01-28T17:43:03.092Z,0.60
2023-01-28T17:45:34.722Z,0.60
2023-01-28T17:48:02.736Z,0.70
2023-01-28T17:50:30.681Z,0.60
2023-01-28T17:53:06.503Z,0.70
2023-01-28T17:55:40.230Z,0.70
2023-01-28T17:58:08.300Z,0.70
2023-01-28T18:00:36.505Z,0.70
2023-01-28T18:03:04.566Z,0.60
2023-01-28T18:05:32.462Z,0.60
2023-01-28T18:08:00.337Z,0.60
2023-01-28T18:10:28.261Z,0.60
2023-01-28T18:12:56.167Z,0.60
2023-01-28T18:15:25.788Z,0.60
2023-01-28T18:17:54.117Z,0.50
2023-01-28T18:20:22.098Z,0.50
2023-01-28T18:22:50.105Z,0.50
2023-01-28T18:25:19.710Z,0.50
2023-01-28T18:27:47.835Z,0.50
2023-01-28T18:30:17.396Z,0.50
2023-01-28T18:32:45.474Z,0.40
2023-01-28T18:35:13.797Z,0.40
2023-01-28T18:37:42.107Z,0.40
2023-01-28T18:40:10.606Z,0.40
2023-01-28T18:42:38.887Z,0.40
2023-01-28T18:45:07.617Z,0.40
2023-01-28T18:47:35.484Z,0.30
2023-01-28T18:50:03.367Z,0.30
2023-01-28T18:52:31.263Z,0.30
2023-01-28T18:54:59.359Z,0.20
2023-01-28T18:57:27.231Z,0.20
2023-01-28T18:59:55.179Z,0.20
2023-01-28T19:02:23.130Z,0.20
2023-01-28T19:04:51.033Z,0.20
2023-01-28T19:07:18.951Z,0.20
2023-01-28T19:09:46.826Z,0.20
2023-01-28T19:12:14.724Z,0.10
2023-01-28T19:14:42.644Z,0.20
2023-01-28T19:17:11.309Z,0.20
2023-01-28T19:19:39.144Z,0.20
2023-01-28T19:22:07.078Z,0.20
2023-01-28T19:24:36.359Z,0.10
2023-01-28T19:27:04.349Z,0.10
2023-01-28T19:29:32.374Z,0.20
2023-01-28T19:32:00.340Z,0.10
2023-01-28T19:34:28.386Z,0.10
2023-01-28T19:36:56.292Z,0.00
2023-01-28T19:39:24.585Z,0.10
2023-01-28T19:41:52.567Z,0.10
2023-01-28T19:44:20.675Z,0.10
2023-01-28T19:46:49.018Z,0.10
2023-01-28T19:49:16.983Z,0.10
2023-01-28T19:51:45.298Z,0.10
2023-01-28T19:54:13.439Z,0.10
2023-01-28T19:56:41.484Z,0.20
2023-01-28T19:59:12.061Z,0.20
2023-01-28T20:01:40.067Z,0.10
2023-01-28T20:04:10.152Z,0.10
2023-01-28T20:06:41.245Z,0.10
2023-01-28T20:09:16.476Z,0.10
2023-01-28T20:11:44.582Z,0.00
2023-01-28T20:14:12.713Z,0.00
2023-01-28T20:16:40.724Z,-0.10
2023-01-28T20:19:14.874Z,-0.10
2023-01-28T20:21:43.382Z,-0.10
2023-01-28T20:24:13.619Z,-0.20
2023-01-28T20:26:43.539Z,-0.20
2023-01-28T20:29:14.992Z,-0.20
2023-01-28T20:31:43.448Z,-0.20
2023-01-28T20:34:17.438Z,-0.20
2023-01-28T20:36:45.665Z,-0.20
2023-01-28T20:39:14.900Z,-0.30
2023-01-28T20:41:42.911Z,-0.30
2023-01-28T20:44:10.784Z,-0.40
2023-01-28T20:46:40.025Z,-0.40
2023-01-28T20:49:08.189Z,-0.40
2023-01-28T20:51:37.139Z,-0.40
2023-01-28T20:54:05.775Z,-0.40
2023-01-28T20:56:34.059Z,-0.30
2023-01-28T20:59:04.866Z,-0.30
2023-01-28T21:01:36.179Z,-0.40
2023-01-28T21:04:05.842Z,-0.40
2023-01-28T21:06:37.518Z,-0.40
2023-01-28T21:09:08.551Z,-0.40
2023-01-28T21:11:36.488Z,-0.40
2023-01-28T21:14:04.418Z,-0.50
2023-01-28T21:16:32.950Z,-0.40
2023-01-28T21:19:00.882Z,-0.50
2023-01-28T21:21:29.963Z,-0.50
2023-01-28T21:24:01.027Z,-0.50
2023-01-28T21:26:29.397Z,-0.50
2023-01-28T21:28:57.538Z,-0.50
2023-01-28T21:31:26.997Z,-0.40
2023-01-28T21:33:59.871Z,-0.40
2023-01-28T21:36:28.130Z,-0.50
2023-01-28T21:38:58.769Z,-0.40
2023-01-28T21:41:27.738Z,-0.40
2023-01-28T21:43:56.775Z,-0.50
2023-01-28T21:46:27.016Z,-0.50
2023-01-28T21:48:59.455Z,-0.50
2023-01-28T21:51:36.941Z,-0.60
2023-01-28T21:54:06.439Z,-0.60
2023-01-28T21:56:34.440Z,-0.60
2023-01-28T21:59:21.267Z,-0.60
2023-01-28T22:01:51.179Z,-0.50
2023-01-28T22:04:19.136Z,-0.50
2023-01-28T22:06:47.314Z,-0.50
2023-01-28T22:09:15.582Z,-0.60
2023-01-28T22:11:45.197Z,-0.70
2023-01-28T22:14:13.766Z,-0.60
2023-01-28T22:16:41.973Z,-0.60
2023-01-28T22:19:10.378Z,-0.60
2023-01-28T22:21:42.051Z,-0.60
2023-01-28T22:24:12.540Z,-0.60
2023-01-28T22:26:41.618Z,-0.60
2023-01-28T22:29:10.491Z,-0.70
2023-01-28T22:31:39.089Z,-0.70
2023-01-28T22:34:07.592Z,-0.80
2023-01-28T22:36:36.146Z,-0.80
2023-01-28T22:39:06.830Z,-0.80
2023-01-28T22:41:35.324Z,-0.80
2023-01-28T22:44:04.779Z,-0.80
2023-01-28T22:46:33.607Z,-0.80
2023-01-28T22:49:01.949Z,-0.80
2023-01-28T22:51:32.931Z,-0.80
2023-01-28T22:54:00.907Z,-0.70
2023-01-28T22:56:30.982Z,-0.70
2023-01-28T22:59:01.181Z,-0.80
2023-01-28T23:01:30.341Z,-0.90
2023-01-28T23:03:58.622Z,-0.90
2023-01-28T23:06:27.877Z,-0.90
2023-01-28T23:08:57.260Z,-0.90
2023-01-28T23:11:26.428Z,-0.90
2023-01-28T23:14:23.274Z,-0.90
2023-01-28T23:17:30.159Z,-0.90
2023-01-28T23:20:17.197Z,-0.90
2023-01-28T23:23:04.074Z,-0.90
2023-01-28T23:25:32.024Z,-0.90
2023-01-28T23:27:59.903Z,-0.90
2023-01-28T23:30:29.019Z,-0.90
2023-01-28T23:32:58.786Z,-1.00
2023-01-28T23:35:28.005Z,-0.90
2023-01-28T23:37:56.784Z,-0.90
2023-01-28T23:40:25.711Z,-0.90
2023-01-28T23:42:54.557Z,-0.90
2023-01-28T23:45:23.697Z,-0.90
2023-01-28T23:47:51.842Z,-1.00
2023-01-28T23:50:20.104Z,-0.90
2023-01-28T23:52:48.174Z,-0.90
2023-01-28T23:55:17.066Z,-0.90
2023-01-28T23:57:45.020Z,-0.80
